Wetterdaten: Woche 26.03.12 - 01.04.12 (KW13)
Datum Zeit Temperatur Luftfeuchte Luftdruck Niederschlag Windrichtung Sonnenschein Solar Wind
26.03.2012 00:00 7,1 C 79 % 1029,0 hPa 0,0 l/m N-NW 0,00 h 0 W/m 2,7 km/h (1 Bft)
26.03.2012 01:00 5,8 C 83 % 1029,0 hPa 0,0 l/m N-NO 0,00 h 0 W/m 1,3 km/h (1 Bft)
26.03.2012 02:00 5,6 C 82 % 1029,2 hPa 0,0 l/m N-NO 0,00 h 0 W/m 4,5 km/h (1 Bft)
26.03.2012 03:00 5,8 C 80 % 1029,0 hPa 0,0 l/m N 0,00 h 0 W/m 5,5 km/h (1 Bft)
26.03.2012 04:00 5,3 C 79 % 1029,0 hPa 0,0 l/m N-NW 0,00 h 0 W/m 5,5 km/h (1 Bft)
26.03.2012 05:00 4,5 C 81 % 1029,3 hPa 0,0 l/m N-NW 0,00 h 0 W/m 4,3 km/h (1 Bft)
26.03.2012 06:00 4,1 C 81 % 1029,4 hPa 0,0 l/m N-NW 0,00 h 0 W/m 4,0 km/h (1 Bft)
26.03.2012 07:00 3,8 C 81 % 1029,8 hPa 0,0 l/m N-NW 0,00 h 17 W/m 4,0 km/h (1 Bft)
26.03.2012 08:00 5,4 C 74 % 1030,0 hPa 0,0 l/m N-NW 0,50 h 126 W/m 5,6 km/h (1 Bft)
26.03.2012 09:00 8,1 C 66 % 1030,3 hPa 0,0 l/m NO 1,00 h 314 W/m 10,1 km/h (2 Bft)
26.03.2012 10:00 10,2 C 60 % 1030,3 hPa 0,0 l/m O-NO 1,00 h 485 W/m 12,9 km/h (3 Bft)
26.03.2012 11:00 12,2 C 54 % 1030,3 hPa 0,0 l/m O 1,00 h 622 W/m 13,3 km/h (3 Bft)
26.03.2012 12:00 14,4 C 45 % 1030,0 hPa 0,0 l/m NO 1,00 h 717 W/m 11,6 km/h (2 Bft)
26.03.2012 13:00 15,4 C 38 % 1029,7 hPa 0,0 l/m NO 1,00 h 749 W/m 15,6 km/h (3 Bft)
26.03.2012 14:00 16,0 C 38 % 1029,7 hPa 0,0 l/m O-NO 1,00 h 728 W/m 16,2 km/h (3 Bft)
26.03.2012 15:00 16,2 C 37 % 1029,5 hPa 0,0 l/m N-NO 1,00 h 644 W/m 18,1 km/h (3 Bft)
26.03.2012 16:00 16,2 C 39 % 1029,1 hPa 0,0 l/m O-NO 1,00 h 521 W/m 16,0 km/h (3 Bft)
26.03.2012 17:00 16,1 C 38 % 1028,6 hPa 0,0 l/m O-NO 1,00 h 367 W/m 12,6 km/h (3 Bft)
26.03.2012 18:00 15,5 C 39 % 1028,6 hPa 0,0 l/m O-NO 0,92 h 169 W/m 12,4 km/h (3 Bft)
26.03.2012 19:00 13,8 C 44 % 1029,0 hPa 0,0 l/m O-NO 0,08 h 18 W/m 8,4 km/h (2 Bft)
26.03.2012 20:00 11,3 C 54 % 1029,5 hPa 0,0 l/m NO 0,00 h 0 W/m 2,7 km/h (1 Bft)
26.03.2012 21:00 9,2 C 63 % 1029,9 hPa 0,0 l/m O-NO 0,00 h 0 W/m 2,3 km/h (1 Bft)
26.03.2012 22:00 8,0 C 69 % 1030,0 hPa 0,0 l/m NO 0,00 h 0 W/m 3,3 km/h (1 Bft)
26.03.2012 23:00 7,2 C 71 % 1029,8 hPa 0,0 l/m NO 0,00 h 0 W/m 3,5 km/h (1 Bft)
27.03.2012 00:00 6,6 C 73 % 1029,9 hPa 0,0 l/m N-NO 0,00 h 0 W/m 3,1 km/h (1 Bft)
27.03.2012 01:00 5,9 C 76 % 1029,9 hPa 0,0 l/m N 0,00 h 0 W/m 3,6 km/h (1 Bft)
27.03.2012 02:00 5,7 C 77 % 1029,9 hPa 0,0 l/m N-NW 0,00 h 0 W/m 4,9 km/h (1 Bft)
27.03.2012 03:00 5,6 C 76 % 1029,8 hPa 0,0 l/m N-NW 0,00 h 0 W/m 6,1 km/h (2 Bft)
27.03.2012 04:00 4,9 C 78 % 1029,7 hPa 0,0 l/m N-NW 0,00 h 0 W/m 5,9 km/h (2 Bft)
27.03.2012 05:00 4,5 C 77 % 1029,7 hPa 0,0 l/m N-NW 0,00 h 0 W/m 5,6 km/h (1 Bft)
27.03.2012 06:00 3,7 C 79 % 1029,8 hPa 0,0 l/m N-NW 0,00 h 0 W/m 2,7 km/h (1 Bft)
27.03.2012 07:00 3,5 C 79 % 1030,0 hPa 0,0 l/m N-NW 0,08 h 24 W/m 4,3 km/h (1 Bft)
27.03.2012 08:00 5,3 C 72 % 1030,3 hPa 0,0 l/m N-NW 0,42 h 121 W/m 3,2 km/h (1 Bft)
27.03.2012 09:00 7,6 C 62 % 1030,6 hPa 0,0 l/m N-NO 1,00 h 319 W/m 7,1 km/h (2 Bft)
27.03.2012 10:00 9,9 C 55 % 1030,8 hPa 0,0 l/m NO 1,00 h 494 W/m 8,4 km/h (2 Bft)
27.03.2012 11:00 11,6 C 40 % 1030,9 hPa 0,0 l/m O-SO 1,00 h 634 W/m 12,5 km/h (3 Bft)
27.03.2012 12:00 13,3 C 31 % 1030,8 hPa 0,0 l/m NO 1,00 h 718 W/m 14,9 km/h (3 Bft)
27.03.2012 13:00 14,5 C 31 % 1030,6 hPa 0,0 l/m O-NO 1,00 h 718 W/m 14,0 km/h (3 Bft)
27.03.2012 14:00 15,3 C 30 % 1030,1 hPa 0,0 l/m O-SO 1,00 h 681 W/m 13,8 km/h (3 Bft)
27.03.2012 15:00 16,0 C 29 % 1029,5 hPa 0,0 l/m O-NO 1,00 h 657 W/m 13,0 km/h (3 Bft)
27.03.2012 16:00 16,5 C 27 % 1029,0 hPa 0,0 l/m O 1,00 h 500 W/m 13,2 km/h (3 Bft)
27.03.2012 17:00 16,5 C 27 % 1028,8 hPa 0,0 l/m O-NO 1,00 h 353 W/m 12,9 km/h (3 Bft)
27.03.2012 18:00 15,5 C 31 % 1028,7 hPa 0,0 l/m O-SO 0,42 h 103 W/m 9,4 km/h (2 Bft)
27.03.2012 19:00 12,7 C 41 % 1028,8 hPa 0,0 l/m N 0,00 h 14 W/m 0,5 km/h (0 Bft)
27.03.2012 20:00 9,9 C 51 % 1029,2 hPa 0,0 l/m N 0,00 h 0 W/m 0,7 km/h (0 Bft)
27.03.2012 21:00 8,6 C 56 % 1029,4 hPa 0,0 l/m N 0,00 h 0 W/m 0,7 km/h (0 Bft)
27.03.2012 22:00 7,5 C 61 % 1029,7 hPa 0,0 l/m N 0,00 h 0 W/m 0,9 km/h (0 Bft)
27.03.2012 23:00 6,3 C 69 % 1029,7 hPa 0,0 l/m N 0,00 h 0 W/m 0,0 km/h (0 Bft)
28.03.2012 00:00 5,6 C 71 % 1029,6 hPa 0,0 l/m N 0,00 h 0 W/m 0,1 km/h (0 Bft)
28.03.2012 01:00 5,5 C 70 % 1029,2 hPa 0,0 l/m N 0,00 h 0 W/m 0,9 km/h (0 Bft)
28.03.2012 02:00 5,0 C 74 % 1028,8 hPa 0,0 l/m N 0,00 h 0 W/m 0,0 km/h (0 Bft)
28.03.2012 03:00 4,0 C 80 % 1028,6 hPa 0,0 l/m N 0,00 h 0 W/m 0,0 km/h (0 Bft)
28.03.2012 04:00 4,0 C 80 % 1028,3 hPa 0,0 l/m N 0,00 h 0 W/m 0,3 km/h (0 Bft)
28.03.2012 05:00 4,6 C 79 % 1028,3 hPa 0,0 l/m N-NW 0,00 h 0 W/m 6,3 km/h (2 Bft)
28.03.2012 06:00 5,0 C 79 % 1028,1 hPa 0,0 l/m N-NW 0,00 h 0 W/m 6,3 km/h (2 Bft)
28.03.2012 07:00 4,3 C 82 % 1028,1 hPa 0,0 l/m N-NW 0,00 h 20 W/m 3,1 km/h (1 Bft)
28.03.2012 08:00 5,9 C 78 % 1028,0 hPa 0,0 l/m N 0,58 h 135 W/m 5,0 km/h (1 Bft)
28.03.2012 09:00 8,7 C 69 % 1027,8 hPa 0,0 l/m N-NO 1,00 h 318 W/m 7,0 km/h (2 Bft)
28.03.2012 10:00 11,9 C 60 % 1027,7 hPa 0,0 l/m NO 1,00 h 478 W/m 10,2 km/h (2 Bft)
28.03.2012 11:00 14,0 C 53 % 1027,3 hPa 0,0 l/m NO 1,00 h 619 W/m 14,9 km/h (3 Bft)
28.03.2012 12:00 16,0 C 48 % 1026,7 hPa 0,0 l/m NO 1,00 h 707 W/m 14,5 km/h (3 Bft)
28.03.2012 13:00 17,4 C 44 % 1025,9 hPa 0,0 l/m NO 1,00 h 726 W/m 16,2 km/h (3 Bft)
28.03.2012 14:00 18,4 C 40 % 1025,2 hPa 0,0 l/m N-NO 1,00 h 716 W/m 16,2 km/h (3 Bft)
28.03.2012 15:00 19,0 C 40 % 1024,3 hPa 0,0 l/m NO 1,00 h 635 W/m 14,4 km/h (3 Bft)
28.03.2012 16:00 19,1 C 40 % 1023,7 hPa 0,0 l/m O 1,00 h 518 W/m 12,5 km/h (3 Bft)
28.03.2012 17:00 19,2 C 39 % 1023,2 hPa 0,0 l/m O 1,00 h 359 W/m 8,7 km/h (2 Bft)
28.03.2012 18:00 18,6 C 41 % 1023,0 hPa 0,0 l/m O-SO 0,92 h 161 W/m 6,9 km/h (2 Bft)
28.03.2012 19:00 16,3 C 50 % 1023,1 hPa 0,0 l/m N 0,17 h 22 W/m 1,9 km/h (1 Bft)
28.03.2012 20:00 13,7 C 63 % 1023,3 hPa 0,0 l/m NO 0,00 h 0 W/m 4,5 km/h (1 Bft)
28.03.2012 21:00 12,3 C 69 % 1023,6 hPa 0,0 l/m N-NO 0,00 h 0 W/m 4,5 km/h (1 Bft)
28.03.2012 22:00 10,8 C 73 % 1023,6 hPa 0,0 l/m N-NO 0,00 h 0 W/m 2,8 km/h (1 Bft)
28.03.2012 23:00 9,3 C 78 % 1023,4 hPa 0,0 l/m N-NO 0,00 h 0 W/m 1,5 km/h (1 Bft)
29.03.2012 00:00 8,6 C 78 % 1023,2 hPa 0,0 l/m N 0,00 h 0 W/m 0,7 km/h (0 Bft)
29.03.2012 01:00 9,0 C 72 % 1023,1 hPa 0,0 l/m N-NO 0,00 h 0 W/m 5,2 km/h (1 Bft)
29.03.2012 02:00 8,4 C 73 % 1022,7 hPa 0,0 l/m N 0,00 h 0 W/m 1,3 km/h (1 Bft)
29.03.2012 03:00 7,1 C 79 % 1022,1 hPa 0,0 l/m N 0,00 h 0 W/m 0,1 km/h (0 Bft)
29.03.2012 04:00 6,3 C 83 % 1021,6 hPa 0,0 l/m N 0,00 h 0 W/m 0,1 km/h (0 Bft)
29.03.2012 05:00 4,9 C 89 % 1021,2 hPa 0,0 l/m N 0,00 h 0 W/m 0,7 km/h (0 Bft)
29.03.2012 06:00 4,8 C 89 % 1021,2 hPa 0,0 l/m NO 0,00 h 0 W/m 2,9 km/h (1 Bft)
29.03.2012 07:00 4,8 C 87 % 1021,3 hPa 0,0 l/m N 0,00 h 23 W/m 1,1 km/h (0 Bft)
29.03.2012 08:00 5,8 C 86 % 1021,5 hPa 0,0 l/m N 0,42 h 123 W/m 0,5 km/h (0 Bft)
29.03.2012 09:00 9,1 C 73 % 1021,4 hPa 0,0 l/m N 0,92 h 293 W/m 1,3 km/h (1 Bft)
29.03.2012 10:00 12,1 C 60 % 1021,2 hPa 0,0 l/m NO 0,92 h 406 W/m 4,5 km/h (1 Bft)
29.03.2012 11:00 14,2 C 49 % 1020,6 hPa 0,0 l/m S-SW 1,00 h 573 W/m 11,0 km/h (2 Bft)
29.03.2012 12:00 15,6 C 37 % 1020,0 hPa 0,0 l/m W-NW 1,00 h 635 W/m 13,7 km/h (3 Bft)
29.03.2012 13:00 16,9 C 35 % 1019,1 hPa 0,0 l/m W-NW 1,00 h 719 W/m 14,6 km/h (3 Bft)
29.03.2012 14:00 17,6 C 28 % 1018,3 hPa 0,0 l/m N-NW 0,92 h 695 W/m 19,8 km/h (4 Bft)
29.03.2012 15:00 17,7 C 27 % 1017,3 hPa 0,0 l/m W-NW 0,92 h 602 W/m 21,6 km/h (4 Bft)
29.03.2012 16:00 17,0 C 32 % 1016,7 hPa 0,0 l/m NW 0,25 h 211 W/m 16,0 km/h (3 Bft)
29.03.2012 17:00 15,6 C 37 % 1016,3 hPa 0,0 l/m N-NW 0,00 h 60 W/m 12,1 km/h (2 Bft)
29.03.2012 18:00 14,8 C 37 % 1016,3 hPa 0,0 l/m N-NW 0,00 h 37 W/m 16,9 km/h (3 Bft)
29.03.2012 19:00 13,6 C 43 % 1016,6 hPa 0,0 l/m W-NW 0,00 h 13 W/m 13,8 km/h (3 Bft)
29.03.2012 20:00 12,6 C 47 % 1016,7 hPa 0,0 l/m W-NW 0,00 h 0 W/m 12,6 km/h (3 Bft)
29.03.2012 21:00 11,9 C 51 % 1017,1 hPa 0,0 l/m W-NW 0,00 h 0 W/m 11,2 km/h (2 Bft)
29.03.2012 22:00 11,6 C 54 % 1017,3 hPa 0,0 l/m W-NW 0,00 h 0 W/m 9,0 km/h (2 Bft)
29.03.2012 23:00 10,3 C 64 % 1017,7 hPa 0,0 l/m N-NO 0,00 h 0 W/m 10,2 km/h (2 Bft)
30.03.2012 00:00 9,4 C 66 % 1017,8 hPa 0,0 l/m N-NW 0,00 h 0 W/m 6,3 km/h (2 Bft)
30.03.2012 01:00 9,0 C 68 % 1017,8 hPa 0,0 l/m NW 0,00 h 0 W/m 4,9 km/h (1 Bft)
30.03.2012 02:00 8,7 C 68 % 1017,3 hPa 0,0 l/m NW 0,00 h 0 W/m 6,5 km/h (2 Bft)
30.03.2012 03:00 8,5 C 70 % 1016,9 hPa 0,0 l/m W-NW 0,00 h 0 W/m 6,0 km/h (2 Bft)
30.03.2012 04:00 8,3 C 72 % 1016,7 hPa 0,0 l/m W 0,00 h 0 W/m 6,2 km/h (2 Bft)
30.03.2012 05:00 8,4 C 71 % 1016,4 hPa 0,0 l/m W-NW 0,00 h 0 W/m 8,7 km/h (2 Bft)
30.03.2012 06:00 8,2 C 71 % 1016,2 hPa 0,0 l/m W-NW 0,00 h 0 W/m 9,8 km/h (2 Bft)
30.03.2012 07:00 7,9 C 72 % 1016,2 hPa 0,0 l/m W-NW 0,00 h 11 W/m 8,4 km/h (2 Bft)
30.03.2012 08:00 8,0 C 75 % 1016,5 hPa 0,0 l/m W-NW 0,00 h 28 W/m 13,0 km/h (3 Bft)
30.03.2012 09:00 8,2 C 78 % 1017,0 hPa 0,0 l/m NW 0,00 h 52 W/m 15,0 km/h (3 Bft)
30.03.2012 10:00 8,3 C 78 % 1017,3 hPa 0,0 l/m N-NW 0,00 h 140 W/m 20,6 km/h (4 Bft)
30.03.2012 11:00 9,0 C 76 % 1017,5 hPa 0,0 l/m W-NW 0,00 h 228 W/m 20,1 km/h (4 Bft)
30.03.2012 12:00 10,0 C 72 % 1017,1 hPa 0,0 l/m W-NW 0,33 h 362 W/m 22,0 km/h (4 Bft)
30.03.2012 13:00 10,6 C 70 % 1016,9 hPa 0,0 l/m W-NW 0,17 h 295 W/m 20,8 km/h (4 Bft)
30.03.2012 14:00 10,6 C 69 % 1016,7 hPa 0,0 l/m N-NW 0,17 h 226 W/m 20,9 km/h (4 Bft)
30.03.2012 15:00 11,6 C 63 % 1016,2 hPa 0,0 l/m W-NW 0,17 h 265 W/m 18,2 km/h (3 Bft)
30.03.2012 16:00 11,3 C 65 % 1016,0 hPa 0,0 l/m W-NW 0,00 h 144 W/m 15,0 km/h (3 Bft)
30.03.2012 17:00 11,4 C 65 % 1015,6 hPa 0,0 l/m NW 0,00 h 107 W/m 15,3 km/h (3 Bft)
30.03.2012 18:00 11,1 C 65 % 1015,8 hPa 0,0 l/m W-NW 0,00 h 45 W/m 16,8 km/h (3 Bft)
30.03.2012 19:00 10,2 C 67 % 1016,1 hPa 0,0 l/m W 0,00 h 19 W/m 11,6 km/h (2 Bft)
30.03.2012 20:00 9,6 C 71 % 1016,2 hPa 0,0 l/m W 0,00 h 0 W/m 9,7 km/h (2 Bft)
30.03.2012 21:00 9,4 C 72 % 1016,5 hPa 0,0 l/m W-NW 0,00 h 0 W/m 10,9 km/h (2 Bft)
30.03.2012 22:00 9,5 C 72 % 1016,1 hPa 0,0 l/m W 0,00 h 0 W/m 10,5 km/h (2 Bft)
30.03.2012 23:00 9,0 C 74 % 1015,8 hPa 0,0 l/m W 0,00 h 0 W/m 12,0 km/h (2 Bft)
31.03.2012 00:00 8,6 C 77 % 1015,2 hPa 0,0 l/m NW 0,00 h 0 W/m 11,9 km/h (2 Bft)
31.03.2012 01:00 8,1 C 80 % 1014,8 hPa 0,0 l/m N-NO 0,00 h 0 W/m 6,1 km/h (2 Bft)
31.03.2012 02:00 7,2 C 84 % 1014,2 hPa 0,0 l/m N 0,00 h 0 W/m 0,3 km/h (0 Bft)
31.03.2012 03:00 6,9 C 86 % 1013,6 hPa 0,0 l/m N 0,00 h 0 W/m 0,3 km/h (0 Bft)
31.03.2012 04:00 6,9 C 86 % 1012,9 hPa 0,0 l/m N 0,00 h 0 W/m 1,5 km/h (1 Bft)
31.03.2012 05:00 7,2 C 85 % 1012,5 hPa 0,0 l/m W 0,00 h 0 W/m 11,8 km/h (2 Bft)
31.03.2012 06:00 7,5 C 81 % 1012,3 hPa 0,0 l/m W 0,00 h 0 W/m 10,4 km/h (2 Bft)
31.03.2012 07:00 7,8 C 79 % 1012,1 hPa 0,0 l/m W-SW 0,00 h 13 W/m 8,4 km/h (2 Bft)
31.03.2012 08:00 8,5 C 76 % 1012,1 hPa 0,0 l/m W 0,08 h 76 W/m 7,1 km/h (2 Bft)
31.03.2012 09:00 9,0 C 78 % 1011,7 hPa 0,0 l/m SW 0,08 h 177 W/m 13,0 km/h (3 Bft)
31.03.2012 10:00 10,2 C 70 % 1011,1 hPa 0,0 l/m W-NW 0,25 h 225 W/m 19,0 km/h (3 Bft)
31.03.2012 11:00 11,3 C 65 % 1010,7 hPa 0,0 l/m W 0,33 h 361 W/m 18,2 km/h (3 Bft)
31.03.2012 12:00 12,6 C 60 % 1010,1 hPa 0,0 l/m W-NW 0,58 h 432 W/m 18,6 km/h (3 Bft)
31.03.2012 13:00 14,2 C 53 % 1009,3 hPa 0,0 l/m W 0,75 h 653 W/m 20,6 km/h (4 Bft)
31.03.2012 14:00 15,5 C 47 % 1008,6 hPa 0,0 l/m W-NW 1,00 h 786 W/m 19,6 km/h (3 Bft)
31.03.2012 15:00 16,2 C 40 % 1007,8 hPa 0,0 l/m N-NW 1,00 h 679 W/m 20,5 km/h (4 Bft)
31.03.2012 16:00 16,1 C 35 % 1007,1 hPa 0,0 l/m NW 1,00 h 568 W/m 24,9 km/h (4 Bft)
31.03.2012 17:00 15,3 C 32 % 1006,9 hPa 0,0 l/m NW 0,92 h 353 W/m 27,2 km/h (4 Bft)
31.03.2012 18:00 14,0 C 39 % 1007,4 hPa 0,0 l/m NW 1,00 h 199 W/m 22,4 km/h (4 Bft)
31.03.2012 19:00 11,3 C 54 % 1008,2 hPa 0,0 l/m N 0,08 h 22 W/m 19,9 km/h (4 Bft)
31.03.2012 20:00 9,5 C 61 % 1008,8 hPa 0,0 l/m N-NW 0,00 h 0 W/m 10,6 km/h (2 Bft)
31.03.2012 21:00 8,4 C 67 % 1009,4 hPa 0,0 l/m NW 0,00 h 0 W/m 5,3 km/h (1 Bft)
31.03.2012 22:00 7,9 C 73 % 1010,4 hPa 0,0 l/m N-NO 0,00 h 0 W/m 18,6 km/h (3 Bft)
31.03.2012 23:00 6,5 C 74 % 1011,4 hPa 0,0 l/m N-NO 0,00 h 0 W/m 22,6 km/h (4 Bft)
01.04.2012 00:00 5,4 C 68 % 1012,4 hPa 0,0 l/m N-NO 0,00 h 0 W/m 19,2 km/h (3 Bft)
01.04.2012 01:00 4,5 C 71 % 1012,6 hPa 0,0 l/m N-NO 0,00 h 0 W/m 14,6 km/h (3 Bft)
01.04.2012 02:00 4,3 C 70 % 1013,1 hPa 0,0 l/m O-NO 0,00 h 0 W/m 15,3 km/h (3 Bft)
01.04.2012 03:00 3,7 C 63 % 1013,4 hPa 0,0 l/m O-NO 0,00 h 0 W/m 15,0 km/h (3 Bft)
01.04.2012 04:00 3,2 C 58 % 1013,7 hPa 0,0 l/m O 0,00 h 0 W/m 14,2 km/h (3 Bft)
01.04.2012 05:00 2,7 C 63 % 1013,7 hPa 0,0 l/m O-NO 0,00 h 0 W/m 8,2 km/h (2 Bft)
01.04.2012 06:00 1,7 C 68 % 1014,0 hPa 0,0 l/m O-NO 0,00 h 0 W/m 5,1 km/h (1 Bft)
01.04.2012 07:00 0,8 C 71 % 1014,3 hPa 0,0 l/m NO 0,08 h 26 W/m 3,9 km/h (1 Bft)
01.04.2012 08:00 1,4 C 69 % 1014,8 hPa 0,0 l/m NO 0,75 h 165 W/m 9,3 km/h (2 Bft)
01.04.2012 09:00 3,2 C 60 % 1015,1 hPa 0,0 l/m O-NO 1,00 h 354 W/m 14,6 km/h (3 Bft)
01.04.2012 10:00 4,6 C 56 % 1015,2 hPa 0,0 l/m O-SO 1,00 h 523 W/m 16,6 km/h (3 Bft)
01.04.2012 11:00 5,6 C 51 % 1015,2 hPa 0,0 l/m NO 1,00 h 635 W/m 14,9 km/h (3 Bft)
01.04.2012 12:00 6,7 C 47 % 1014,8 hPa 0,0 l/m O-NO 1,00 h 746 W/m 15,0 km/h (3 Bft)
01.04.2012 13:00 8,1 C 42 % 1014,2 hPa 0,0 l/m N-NO 1,00 h 775 W/m 13,3 km/h (3 Bft)
01.04.2012 14:00 9,1 C 39 % 1013,9 hPa 0,0 l/m O-SO 1,00 h 755 W/m 12,2 km/h (2 Bft)
01.04.2012 15:00 9,6 C 37 % 1013,3 hPa 0,0 l/m NO 1,00 h 683 W/m 9,8 km/h (2 Bft)
01.04.2012 16:00 10,1 C 34 % 1013,0 hPa 0,0 l/m N-NO 1,00 h 569 W/m 12,0 km/h (2 Bft)
01.04.2012 17:00 9,9 C 31 % 1012,5 hPa 0,0 l/m N-NO 1,00 h 413 W/m 12,0 km/h (2 Bft)
01.04.2012 18:00 9,6 C 27 % 1012,3 hPa 0,0 l/m NO 1,00 h 213 W/m 6,3 km/h (2 Bft)
01.04.2012 19:00 7,8 C 33 % 1012,4 hPa 0,0 l/m N 0,08 h 20 W/m 1,5 km/h (1 Bft)
01.04.2012 20:00 4,9 C 46 % 1012,9 hPa 0,0 l/m N 0,00 h 0 W/m 0,5 km/h (0 Bft)
01.04.2012 21:00 3,7 C 56 % 1013,4 hPa 0,0 l/m N 0,00 h 0 W/m 0,0 km/h (0 Bft)
01.04.2012 22:00 2,5 C 60 % 1013,4 hPa 0,0 l/m N 0,00 h 0 W/m 0,4 km/h (0 Bft)
01.04.2012 23:00 1,8 C 64 % 1013,3 hPa 0,0 l/m N 0,00 h 0 W/m 0,1 km/h (0 Bft)
Min-Datum _ 01.04.12 01.04.12 31.03.12 - - - - 26.03.12
_ Min-Zeit 07:15 18:25 16:40 - - - - 00:40
Minimum _ 0,8 C 25 % 1006,8 hPa - - - - 0,0 km/h (0 Bft)
Max-Datum _ 28.03.12 29.03.12 27.03.12 26.03.12 - 26.03.12 31.03.12 31.03.12
_ Max-Zeit 17:05 06:00 12:10 00:00 - 08:30 13:35 17:20
Maximum _ 19,4 C 91 % 1031,0 hPa 0,0 l/m - 0,08 h 853 W/m 33,8 km/h
W-NW (5 Bft)
Durchschnitt _ 9,5 C 61 % 1020,9 hPa #0,0 l/m W-NW #57:15 h 362 W/m 9,5 km/h (2 Bft)